Time;durP1;ratioP1;P1;durP2;ratioP2;P2;SDS_P1;SDS_P2;PMS_P1;PMS_P2;Temp;Humidity;BMP_temperature;BMP_pressure;BME280_temperature;BME280_humidity;BME280_pressure;Samples;Min_cycle;Max_cycle;Signal;HPM_P1;HPM_P2
2023/10/05 00:04:29;;;;;;;8.77;3.38;;;;;;;13.45;85.25;101444.84;7393024;19;20661;-59
2023/10/05 00:06:57;;;;;;;9.25;3.15;;;;;;;13.46;85.39;101440.34;7388020;19;20723;-61
2023/10/05 00:09:24;;;;;;;9.52;3.60;;;;;;;13.45;85.34;101428.88;7391831;19;20712;-59
2023/10/05 00:11:55;;;;;;;13.93;3.43;;;;;;;13.44;85.53;101434.38;7388951;19;20876;-58
2023/10/05 00:14:24;;;;;;;8.60;3.05;;;;;;;13.46;85.40;101441.16;7390557;19;20344;-59
2023/10/05 00:16:54;;;;;;;9.80;3.45;;;;;;;13.48;85.25;101432.19;7387773;19;20345;-57
2023/10/05 00:19:21;;;;;;;10.05;3.17;;;;;;;13.49;85.38;101433.81;7389105;19;20876;-61
2023/10/05 00:21:50;;;;;;;9.53;3.40;;;;;;;13.51;85.26;101426.50;7390391;19;20380;-61
2023/10/05 00:24:24;;;;;;;9.80;3.22;;;;;;;13.53;85.27;101413.81;7390788;19;20875;-60
2023/10/05 00:26:52;;;;;;;9.23;3.15;;;;;;;13.54;85.19;101410.97;7389449;19;20424;-60
2023/10/05 00:29:27;;;;;;;7.72;3.15;;;;;;;13.57;85.03;101420.44;7391579;19;20381;-59
2023/10/05 00:31:58;;;;;;;6.53;2.92;;;;;;;13.56;84.95;101416.16;7388721;19;20370;-60
2023/10/05 00:34:27;;;;;;;8.65;3.40;;;;;;;13.56;85.01;101413.47;7390253;19;20406;-59
2023/10/05 00:36:58;;;;;;;8.93;3.50;;;;;;;13.54;84.76;101420.81;7390672;19;20660;-60
2023/10/05 00:39:30;;;;;;;9.05;3.15;;;;;;;13.52;84.95;101422.84;7389016;19;20409;-59
2023/10/05 00:42:16;;;;;;;12.17;3.37;;;;;;;13.51;84.76;101421.16;7379791;19;20899;-59
2023/10/05 00:44:43;;;;;;;8.98;3.10;;;;;;;13.49;84.78;101415.16;7387101;19;20376;-59
2023/10/05 00:47:13;;;;;;;11.55;3.58;;;;;;;13.46;84.74;101422.50;7389729;19;20376;-60
2023/10/05 00:49:52;;;;;;;10.90;3.25;;;;;;;13.47;84.83;101423.34;7389745;19;20367;-60
2023/10/05 00:52:24;;;;;;;10.20;3.65;;;;;;;13.48;84.64;101433.00;7389049;19;20387;-61
2023/10/05 00:54:54;;;;;;;9.02;3.38;;;;;;;13.48;84.85;101426.84;7387888;19;20369;-58
2023/10/05 00:57:24;;;;;;;9.98;3.47;;;;;;;13.46;84.76;101419.84;7388366;19;20348;-58
2023/10/05 01:02:32;;;;;;;8.80;3.38;;;;;;;13.51;84.57;101424.66;7389000;19;20446;-59
2023/10/05 01:05:15;;;;;;;9.45;3.08;;;;;;;13.56;84.45;101422.28;7388494;19;20364;-61
2023/10/05 01:07:43;;;;;;;8.05;3.05;;;;;;;13.58;84.33;101416.75;7388666;19;20384;-59
2023/10/05 01:10:22;;;;;;;10.98;3.22;;;;;;;13.60;84.10;101418.28;7385914;19;20349;-59
2023/10/05 01:12:50;;;;;;;9.88;2.60;;;;;;;13.65;84.12;101410.56;7387141;19;20365;-60
2023/10/05 01:15:19;;;;;;;8.98;3.30;;;;;;;13.67;83.95;101402.38;7388192;19;20894;-58
2023/10/05 01:17:47;;;;;;;10.00;2.88;;;;;;;13.71;83.96;101398.38;7390072;19;20364;-60
2023/10/05 01:22:47;;;;;;;10.88;3.50;;;;;;;13.77;84.15;101404.81;7387697;19;20378;-59
2023/10/05 01:25:14;;;;;;;8.43;3.00;;;;;;;13.80;84.03;101410.63;7387223;19;20675;-59
2023/10/05 01:27:50;;;;;;;7.85;2.92;;;;;;;13.81;84.00;101398.97;7387018;19;20349;-59
2023/10/05 01:30:18;;;;;;;10.70;3.20;;;;;;;13.85;83.85;101400.22;7385798;19;20431;-58
2023/10/05 01:32:46;;;;;;;8.77;3.15;;;;;;;13.85;84.07;101402.06;7385271;19;20380;-60
2023/10/05 01:35:15;;;;;;;10.18;2.88;;;;;;;13.86;83.72;101399.25;7388585;19;20364;-60
2023/10/05 01:37:46;;;;;;;10.85;3.10;;;;;;;13.91;83.86;101389.88;7388521;19;20864;-58
2023/10/05 01:42:51;;;;;;;8.48;2.58;;;;;;;13.96;83.71;101390.16;7387229;19;20360;-59
2023/10/05 01:45:29;;;;;;;9.85;3.28;;;;;;;13.98;83.72;101386.31;7387318;19;20361;-60
2023/10/05 01:48:12;;;;;;;9.82;2.85;;;;;;;13.99;83.65;101379.13;7387782;19;20375;-58
2023/10/05 01:50:39;;;;;;;10.70;2.88;;;;;;;13.98;83.74;101385.47;7387104;19;20376;-59
2023/10/05 01:55:40;;;;;;;11.43;3.40;;;;;;;14.00;83.52;101383.44;7387354;19;20368;-59
2023/10/05 01:58:08;;;;;;;9.30;3.30;;;;;;;14.05;83.38;101381.09;7387677;19;20413;-60
2023/10/05 02:00:38;;;;;;;8.27;2.95;;;;;;;14.05;83.41;101378.41;7382723;19;20340;-60
2023/10/05 02:03:07;;;;;;;10.70;3.13;;;;;;;14.05;83.31;101378.41;7387272;19;20959;-60
2023/10/05 02:05:36;;;;;;;8.73;3.15;;;;;;;14.07;83.35;101371.88;7388122;19;20360;-59
2023/10/05 02:08:04;;;;;;;10.70;3.20;;;;;;;14.08;83.43;101380.72;7387612;19;20340;-60
2023/10/05 02:10:39;;;;;;;11.18;3.50;;;;;;;14.12;83.17;101376.66;7386779;19;20356;-59
2023/10/05 02:13:12;;;;;;;7.85;2.72;;;;;;;14.12;83.44;101368.66;7385630;19;20416;-60
2023/10/05 02:15:40;;;;;;;10.50;3.30;;;;;;;14.12;83.43;101371.34;7381923;19;20377;-59
2023/10/05 02:18:13;;;;;;;9.48;3.20;;;;;;;14.14;83.34;101366.66;7383537;19;20880;-59
2023/10/05 02:20:43;;;;;;;8.80;2.75;;;;;;;14.17;83.35;101366.25;7385129;19;20393;-59
2023/10/05 02:23:37;;;;;;;9.13;3.35;;;;;;;14.18;83.24;101353.78;7385055;19;20883;-60
2023/10/05 02:26:04;;;;;;;9.45;3.03;;;;;;;14.17;83.45;101358.25;7386340;19;20376;-61
2023/10/05 02:28:33;;;;;;;7.82;2.63;;;;;;;14.20;83.31;101357.09;7385538;19;20760;-57
2023/10/05 02:31:02;;;;;;;8.40;3.03;;;;;;;14.19;83.51;101348.22;7386041;19;20371;-59
2023/10/05 02:33:31;;;;;;;9.60;3.35;;;;;;;14.22;83.36;101355.06;7386528;19;20361;-61
2023/10/05 02:36:20;;;;;;;7.53;3.15;;;;;;;14.25;83.34;101344.03;7384190;19;20421;-60
2023/10/05 02:38:53;;;;;;;10.38;3.53;;;;;;;14.28;83.36;101344.50;7387561;19;20369;-60
2023/10/05 02:41:25;;;;;;;10.40;3.40;;;;;;;14.31;83.41;101347.81;7385375;19;20385;-58
2023/10/05 02:43:54;;;;;;;11.57;3.50;;;;;;;14.32;83.41;101339.59;7383796;19;20357;-59
2023/10/05 02:46:24;;;;;;;9.90;3.25;;;;;;;14.33;83.14;101340.44;7381813;19;20348;-59
2023/10/05 02:48:51;;;;;;;10.75;3.33;;;;;;;14.34;83.47;101353.59;7385403;19;20336;-61
2023/10/05 02:51:18;;;;;;;9.70;3.10;;;;;;;14.38;83.25;101354.88;7387320;19;20383;-60
2023/10/05 02:53:46;;;;;;;10.80;3.25;;;;;;;14.38;83.52;101357.53;7382077;19;20360;-60
2023/10/05 02:56:27;;;;;;;8.88;3.00;;;;;;;14.41;83.51;101359.03;7384591;19;20383;-60
2023/10/05 02:59:01;;;;;;;8.80;3.22;;;;;;;14.39;83.21;101366.41;7384577;19;20742;-60
2023/10/05 03:01:32;;;;;;;9.60;3.63;;;;;;;14.44;83.46;101347.97;7386838;19;20371;-60
2023/10/05 03:04:04;;;;;;;10.23;3.35;;;;;;;14.45;83.29;101349.63;7383661;19;20364;-60
2023/10/05 03:06:33;;;;;;;7.53;3.08;;;;;;;14.47;83.17;101347.59;7387949;19;20324;-59
2023/10/05 03:09:07;;;;;;;7.95;3.08;;;;;;;14.51;83.25;101337.38;7385484;19;20379;-59
2023/10/05 03:11:42;;;;;;;15.55;3.47;;;;;;;14.52;82.96;101339.88;7381803;19;21063;-60
2023/10/05 03:14:10;;;;;;;11.63;3.40;;;;;;;14.53;82.81;101346.88;7381438;19;20340;-59
2023/10/05 03:16:48;;;;;;;9.88;3.50;;;;;;;14.56;82.94;101341.19;7381229;19;20372;-59
2023/10/05 03:19:20;;;;;;;11.07;3.45;;;;;;;14.56;82.74;101333.19;7382131;19;20360;-60
2023/10/05 03:21:52;;;;;;;10.77;3.58;;;;;;;14.53;82.88;101349.53;7384506;19;20361;-60
2023/10/05 03:24:24;;;;;;;10.43;3.95;;;;;;;14.55;82.74;101336.00;7380408;19;20376;-59
2023/10/05 03:26:52;;;;;;;8.77;3.00;;;;;;;14.53;82.92;101330.84;7386775;19;20337;-60
2023/10/05 03:29:21;;;;;;;9.38;3.20;;;;;;;14.55;82.76;101344.03;7382404;19;20388;-59
2023/10/05 03:34:39;;;;;;;8.82;3.38;;;;;;;14.58;82.46;101325.81;7384840;19;20367;-59
2023/10/05 03:37:15;;;;;;;9.35;3.05;;;;;;;14.62;82.23;101328.94;7383337;19;20398;-60
2023/10/05 03:42:29;;;;;;;8.77;3.13;;;;;;;14.62;82.25;101327.13;7384381;19;20802;-59
2023/10/05 03:45:03;;;;;;;8.95;3.20;;;;;;;14.63;82.31;101323.41;7382792;19;20358;-60
2023/10/05 03:47:31;;;;;;;9.00;3.47;;;;;;;14.64;81.83;101332.25;7381676;19;20369;-60
2023/10/05 03:49:58;;;;;;;8.73;3.30;;;;;;;14.65;82.01;101312.56;7381602;19;20740;-60
2023/10/05 03:52:30;;;;;;;8.85;3.10;;;;;;;14.63;81.93;101331.44;7382963;19;20365;-57
2023/10/05 03:55:01;;;;;;;9.90;3.05;;;;;;;14.63;81.91;101325.25;7380542;19;20356;-60
2023/10/05 03:57:31;;;;;;;8.98;3.50;;;;;;;14.62;81.87;101332.44;7381348;19;20709;-60
2023/10/05 03:59:59;;;;;;;7.85;2.95;;;;;;;14.61;82.10;101328.09;7380362;19;20410;-60
2023/10/05 04:02:37;;;;;;;8.00;2.83;;;;;;;14.64;81.91;101329.56;7383099;19;20456;-59
2023/10/05 04:05:09;;;;;;;7.87;3.30;;;;;;;14.63;81.72;101320.75;7380645;19;20360;-59
2023/10/05 04:07:37;;;;;;;7.00;3.17;;;;;;;14.61;81.84;101329.97;7382604;19;20368;-61
2023/10/05 04:10:06;;;;;;;7.80;3.03;;;;;;;14.58;81.94;101317.81;7383657;19;20431;-59
2023/10/05 04:12:37;;;;;;;7.72;2.95;;;;;;;14.57;82.21;101324.16;7382748;19;20369;-60
2023/10/05 04:15:05;;;;;;;9.45;3.65;;;;;;;14.57;82.02;101315.31;7380068;19;20899;-57
2023/10/05 04:17:33;;;;;;;9.57;3.33;;;;;;;14.54;82.40;101321.03;7380797;19;20459;-59
2023/10/05 04:20:00;;;;;;;10.25;3.40;;;;;;;14.53;82.21;101309.47;7377415;19;21176;-60
2023/10/05 04:22:27;;;;;;;9.68;3.33;;;;;;;14.50;82.67;101311.72;7376377;19;20400;-60
2023/10/05 04:24:54;;;;;;;8.60;3.25;;;;;;;14.47;82.59;101316.41;7380517;19;20356;-59
2023/10/05 04:27:22;;;;;;;10.32;3.50;;;;;;;14.46;82.93;101308.59;7380648;19;20793;-59
2023/10/05 04:29:50;;;;;;;10.68;3.10;;;;;;;14.39;83.00;101302.34;7379364;19;20891;-59
2023/10/05 04:32:17;;;;;;;10.55;3.55;;;;;;;14.38;83.18;101303.34;7385350;19;20399;-59
2023/10/05 04:34:44;;;;;;;7.63;3.17;;;;;;;14.37;83.18;101301.69;7386631;19;20435;-60
2023/10/05 04:37:12;;;;;;;12.93;4.00;;;;;;;14.30;83.64;101303.44;7383308;19;20367;-61
2023/10/05 04:39:40;;;;;;;10.35;3.30;;;;;;;14.27;83.86;101299.28;7381590;19;20420;-60
2023/10/05 04:42:11;;;;;;;15.57;3.60;;;;;;;14.25;83.92;101302.13;7390536;19;20950;-60
2023/10/05 04:44:39;;;;;;;11.40;4.10;;;;;;;14.21;84.13;101300.84;7391383;19;20366;-59
2023/10/05 04:47:07;;;;;;;10.60;3.78;;;;;;;14.18;84.18;101298.56;7391848;19;20412;-58
2023/10/05 04:49:36;;;;;;;11.13;4.15;;;;;;;14.15;84.62;101300.75;7390959;19;20389;-59
2023/10/05 04:52:06;;;;;;;8.57;3.88;;;;;;;14.10;84.66;101303.97;7391702;19;20504;-60
2023/10/05 04:54:38;;;;;;;8.88;3.70;;;;;;;14.05;84.83;101306.38;7392356;19;20407;-61
2023/10/05 04:57:12;;;;;;;8.77;3.92;;;;;;;14.01;85.21;101291.75;7392434;19;20352;-59
2023/10/05 04:59:48;;;;;;;10.45;4.25;;;;;;;14.01;85.22;101289.09;7393770;19;20728;-60
2023/10/05 05:02:21;;;;;;;10.35;4.10;;;;;;;13.95;85.61;101287.97;7396188;19;20436;-59
2023/10/05 05:07:21;;;;;;;13.52;4.70;;;;;;;13.87;86.23;101288.88;7388086;19;21460;-59
2023/10/05 05:09:50;;;;;;;11.63;4.90;;;;;;;13.82;86.66;101293.94;7392884;19;20369;-60
2023/10/05 05:12:17;;;;;;;10.18;5.10;;;;;;;13.80;86.88;101292.47;7390611;19;20357;-60
2023/10/05 05:14:46;;;;;;;10.82;4.90;;;;;;;13.82;86.90;101290.44;7392424;19;20377;-58
2023/10/05 05:17:23;;;;;;;10.68;5.38;;;;;;;13.80;87.01;101305.78;7391442;19;20372;-58
2023/10/05 05:19:55;;;;;;;9.40;5.03;;;;;;;13.78;87.03;101300.63;7390166;19;20361;-61
2023/10/05 05:22:23;;;;;;;10.40;5.40;;;;;;;13.77;87.39;101288.31;7390234;19;20373;-62
2023/10/05 05:24:50;;;;;;;11.23;5.70;;;;;;;13.80;87.24;101295.94;7392877;19;20868;-60
2023/10/05 05:29:45;;;;;;;10.48;5.80;;;;;;;13.75;87.69;101295.69;7390819;19;20357;-62
2023/10/05 05:32:15;;;;;;;9.23;5.72;;;;;;;13.77;87.74;101298.13;7390518;19;20885;-62
2023/10/05 05:34:43;;;;;;;10.68;6.10;;;;;;;13.76;87.83;101302.66;7390216;19;20750;-62
2023/10/05 05:37:16;;;;;;;10.00;6.28;;;;;;;13.75;87.98;101298.34;7390211;19;20368;-59
2023/10/05 05:39:42;;;;;;;10.13;6.50;;;;;;;13.76;87.86;101307.97;7393204;19;20384;-59
2023/10/05 05:42:18;;;;;;;11.75;6.63;;;;;;;13.76;87.96;101302.66;7392061;19;20432;-60
2023/10/05 05:44:45;;;;;;;10.30;6.07;;;;;;;13.79;87.82;101304.13;7396066;19;20360;-59
2023/10/05 05:47:14;;;;;;;10.85;6.75;;;;;;;13.75;87.77;101298.34;7398762;19;20402;-59
2023/10/05 05:49:41;;;;;;;9.90;5.95;;;;;;;13.74;87.49;101315.34;7396833;19;20364;-60
2023/10/05 05:52:12;;;;;;;9.13;6.00;;;;;;;13.76;87.46;101302.66;7396246;19;20459;-59
2023/10/05 05:54:41;;;;;;;12.70;6.30;;;;;;;13.74;87.45;101306.50;7394355;19;20389;-59
2023/10/05 05:57:11;;;;;;;11.60;6.38;;;;;;;13.73;87.39;101300.38;7395818;19;20415;-60
2023/10/05 05:59:39;;;;;;;11.20;6.18;;;;;;;13.77;87.05;101299.00;7389344;19;20360;-60
2023/10/05 06:02:10;;;;;;;12.73;5.57;;;;;;;13.76;87.15;101309.81;7398274;19;20364;-61
2023/10/05 06:04:39;;;;;;;10.20;5.88;;;;;;;13.77;86.88;101320.31;7396816;19;20695;-60
2023/10/05 06:07:13;;;;;;;44.05;30.08;;;;;;;13.82;86.66;101314.44;7390776;19;20965;-60
2023/10/05 06:09:42;;;;;;;10.88;5.10;;;;;;;13.82;86.15;101315.25;7397228;19;20368;-59
2023/10/05 06:12:12;;;;;;;9.23;5.28;;;;;;;13.84;86.06;101302.56;7396375;19;20356;-60
2023/10/05 06:14:40;;;;;;;11.40;6.53;;;;;;;13.87;85.76;101310.19;7397192;19;20356;-60
2023/10/05 06:17:10;;;;;;;17.38;10.48;;;;;;;13.91;85.39;101308.00;7398097;19;20679;-61
2023/10/05 06:19:38;;;;;;;10.15;4.50;;;;;;;13.94;85.25;101314.81;7395291;19;20411;-59
2023/10/05 06:22:06;;;;;;;9.10;3.87;;;;;;;13.98;85.19;101318.78;7396650;19;20410;-60
2023/10/05 06:24:42;;;;;;;10.45;4.10;;;;;;;13.99;85.02;101321.28;7395372;19;20389;-58
2023/10/05 06:27:09;;;;;;;8.55;3.70;;;;;;;14.06;84.79;101316.84;7396533;19;20871;-58
2023/10/05 06:29:36;;;;;;;11.30;5.50;;;;;;;14.10;84.68;101320.00;7393275;19;20576;-58
2023/10/05 06:32:08;;;;;;;8.63;3.83;;;;;;;14.15;84.45;101320.25;7397682;19;20380;-60
2023/10/05 06:34:38;;;;;;;9.25;2.78;;;;;;;14.17;84.06;101326.25;7396410;19;20364;-60
2023/10/05 06:37:04;;;;;;;7.07;2.80;;;;;;;14.23;83.92;101320.19;7395809;19;20694;-60
2023/10/05 06:39:32;;;;;;;6.15;2.83;;;;;;;14.25;83.92;101323.50;7397417;19;20368;-60
2023/10/05 06:41:59;;;;;;;9.35;3.25;;;;;;;14.26;83.94;101317.16;7395829;19;20377;-60
2023/10/05 06:44:30;;;;;;;6.82;2.85;;;;;;;14.32;83.82;101326.25;7394131;19;20348;-60
2023/10/05 06:47:00;;;;;;;10.10;2.53;;;;;;;14.37;83.59;101329.22;7395562;19;20371;-59
2023/10/05 06:49:27;;;;;;;11.32;2.88;;;;;;;14.43;83.56;101351.69;7395437;19;20886;-61
2023/10/05 06:51:55;;;;;;;8.02;2.90;;;;;;;14.47;83.59;101331.59;7396762;19;20369;-61
2023/10/05 06:54:22;;;;;;;7.95;2.80;;;;;;;14.47;83.47;101332.44;7394594;19;20441;-58
2023/10/05 06:56:49;;;;;;;7.70;2.75;;;;;;;14.54;83.44;101337.03;7396087;19;20768;-60
2023/10/05 06:59:16;;;;;;;6.45;2.67;;;;;;;14.58;83.57;101335.69;7394396;19;20380;-59
2023/10/05 07:01:43;;;;;;;8.23;3.00;;;;;;;14.64;83.58;101348.25;7393513;19;20703;-59
2023/10/05 07:04:12;;;;;;;7.18;2.63;;;;;;;14.70;84.06;101341.38;7392047;19;20430;-61
2023/10/05 07:06:39;;;;;;;6.90;2.70;;;;;;;14.72;83.87;101340.16;7394237;19;20547;-60
2023/10/05 07:09:06;;;;;;;8.05;3.10;;;;;;;14.81;84.00;101340.88;7395070;19;20364;-61
2023/10/05 07:11:33;;;;;;;8.13;3.05;;;;;;;14.85;83.67;101340.34;7395207;19;20391;-60
2023/10/05 07:14:00;;;;;;;6.45;2.70;;;;;;;14.90;83.42;101342.44;7396142;19;20432;-61
2023/10/05 07:16:29;;;;;;;10.75;3.17;;;;;;;14.92;83.45;101359.13;7393666;19;20365;-60
2023/10/05 07:18:55;;;;;;;5.85;2.67;;;;;;;14.99;83.37;101352.00;7393170;19;20844;-59
2023/10/05 07:21:23;;;;;;;7.97;3.40;;;;;;;15.03;82.90;101355.13;7389561;19;20356;-60
2023/10/05 07:23:59;;;;;;;10.98;5.07;;;;;;;15.11;83.09;101359.50;7391785;19;20356;-60
2023/10/05 07:26:26;;;;;;;8.32;3.10;;;;;;;15.17;82.68;101374.78;7395393;19;20866;-61
2023/10/05 07:28:53;;;;;;;10.23;3.80;;;;;;;15.24;82.29;101376.53;7391885;19;20364;-60
2023/10/05 07:31:19;;;;;;;6.28;3.13;;;;;;;15.30;81.93;101380.31;7393171;19;20376;-60
2023/10/05 07:33:46;;;;;;;10.68;3.70;;;;;;;15.39;81.31;101375.66;7394650;19;20369;-58
2023/10/05 07:36:14;;;;;;;9.85;5.00;;;;;;;15.47;81.32;101376.38;7395891;19;20361;-61
2023/10/05 07:38:41;;;;;;;8.30;3.70;;;;;;;15.54;80.67;101380.97;7395839;19;20884;-61
2023/10/05 07:41:08;;;;;;;8.93;3.95;;;;;;;15.69;80.47;101371.00;7390513;19;20360;-60
2023/10/05 07:43:35;;;;;;;11.30;4.60;;;;;;;15.77;79.69;101365.56;7395791;19;20355;-60
2023/10/05 07:46:04;;;;;;;8.73;3.78;;;;;;;15.82;79.17;101368.47;7393979;19;20360;-60
2023/10/05 07:48:31;;;;;;;12.23;4.57;;;;;;;15.90;79.01;101379.03;7394049;19;20375;-62
2023/10/05 07:50:58;;;;;;;9.32;4.20;;;;;;;15.95;78.95;101375.78;7393780;19;20332;-63
2023/10/05 07:53:25;;;;;;;7.40;3.70;;;;;;;15.97;79.17;101380.94;7394429;19;20357;-62
2023/10/05 07:55:52;;;;;;;9.18;3.85;;;;;;;15.95;78.67;101388.34;7394538;19;20367;-63
2023/10/05 07:58:19;;;;;;;7.63;3.72;;;;;;;15.99;78.49;101392.28;7392752;19;20372;-63
2023/10/05 08:00:46;;;;;;;8.88;3.85;;;;;;;16.02;78.39;101395.41;7391978;19;20428;-62
2023/10/05 08:03:14;;;;;;;8.60;4.07;;;;;;;16.03;77.77;101396.25;7393099;19;20364;-62
2023/10/05 08:05:41;;;;;;;9.05;3.95;;;;;;;16.12;77.90;101392.38;7392915;19;20365;-63
2023/10/05 08:08:10;;;;;;;10.75;3.83;;;;;;;16.20;77.70;101394.91;7395533;19;20832;-63
2023/10/05 08:10:38;;;;;;;10.13;3.63;;;;;;;16.21;77.37;101409.94;7393590;19;20852;-62
2023/10/05 08:13:05;;;;;;;9.30;3.78;;;;;;;16.26;76.93;101398.69;7393178;19;20345;-63
2023/10/05 08:15:34;;;;;;;9.88;3.80;;;;;;;16.34;77.09;101419.09;7394176;19;20389;-62
2023/10/05 08:18:01;;;;;;;10.73;4.00;;;;;;;16.40;76.75;101426.34;7401060;19;20402;-63
2023/10/05 08:20:29;;;;;;;10.75;3.85;;;;;;;16.56;76.80;101418.03;7398597;19;20344;-63
2023/10/05 08:22:56;;;;;;;8.63;3.50;;;;;;;16.60;75.84;101424.66;7400215;19;20931;-62
2023/10/05 08:25:24;;;;;;;10.00;4.00;;;;;;;16.65;75.12;101429.41;7400644;19;20364;-63
2023/10/05 08:27:51;;;;;;;8.00;3.63;;;;;;;16.79;75.70;101427.63;7394869;19;20352;-62
2023/10/05 08:30:19;;;;;;;6.93;3.45;;;;;;;16.85;74.51;101437.56;7398355;19;20352;-62
2023/10/05 08:32:48;;;;;;;7.78;3.55;;;;;;;16.94;73.66;101438.22;7399880;19;20356;-63
2023/10/05 08:35:19;;;;;;;7.15;3.30;;;;;;;17.08;73.96;101438.09;7399745;19;20356;-63
2023/10/05 08:37:49;;;;;;;8.95;4.00;;;;;;;17.19;73.17;101444.75;7401805;19;20665;-62
2023/10/05 08:43:10;;;;;;;8.20;3.17;;;;;;;17.19;72.62;101449.28;7398616;19;20384;-62
2023/10/05 08:45:46;;;;;;;8.45;3.08;;;;;;;17.17;73.36;101449.50;7401078;19;20874;-62
2023/10/05 08:48:20;;;;;;;8.77;2.88;;;;;;;17.14;72.92;101441.03;7397935;19;20376;-62
2023/10/05 08:50:54;;;;;;;6.68;3.30;;;;;;;16.98;72.83;101434.97;7396458;19;20766;-63
2023/10/05 08:53:21;;;;;;;8.07;2.55;;;;;;;17.00;73.44;101457.06;7400126;19;20356;-63
2023/10/05 08:55:51;;;;;;;8.83;3.30;;;;;;;17.14;73.40;101465.16;7394575;19;20414;-62
2023/10/05 08:58:18;;;;;;;9.25;3.00;;;;;;;17.12;73.69;101455.44;7400412;19;20701;-62
2023/10/05 09:00:46;;;;;;;7.35;2.90;;;;;;;17.11;73.09;101455.66;7398908;19;20360;-62
2023/10/05 09:03:35;;;;;;;9.27;3.15;;;;;;;17.14;72.99;101463.28;7399087;19;20856;-62
2023/10/05 09:06:24;;;;;;;9.02;3.00;;;;;;;17.28;73.65;101451.59;7398616;19;20368;-63
2023/10/05 09:09:08;;;;;;;5.78;2.67;;;;;;;17.23;72.64;101467.44;7400345;19;20381;-62
2023/10/05 09:11:36;;;;;;;9.70;2.92;;;;;;;17.23;73.00;101466.63;7399604;19;20364;-62
2023/10/05 09:16:42;;;;;;;10.25;3.25;;;;;;;17.28;72.95;101485.63;7396262;19;20419;-62
2023/10/05 09:19:16;;;;;;;7.50;2.47;;;;;;;17.16;72.54;101465.78;7400279;19;20367;-63
2023/10/05 09:21:50;;;;;;;6.97;2.67;;;;;;;17.12;72.59;101478.75;7398060;19;20370;-62
2023/10/05 09:24:21;;;;;;;9.93;2.50;;;;;;;17.14;72.82;101506.19;7396266;19;20368;-62
2023/10/05 09:26:56;;;;;;;7.30;2.80;;;;;;;17.14;73.10;101471.34;7397343;19;20718;-63
2023/10/05 09:29:29;;;;;;;7.72;2.30;;;;;;;17.10;72.08;101484.31;7399695;19;20369;-62
2023/10/05 09:31:58;;;;;;;11.52;3.00;;;;;;;17.02;72.44;101508.63;7397797;19;20371;-62
2023/10/05 09:34:34;;;;;;;8.03;3.10;;;;;;;17.12;72.62;101508.22;7399178;19;20352;-62
2023/10/05 09:37:06;;;;;;;8.23;2.95;;;;;;;17.10;72.22;101489.66;7395564;19;20381;-62
2023/10/05 09:39:46;;;;;;;7.22;2.92;;;;;;;17.22;72.34;101486.44;7400038;19;20872;-63
2023/10/05 09:42:15;;;;;;;9.38;2.80;;;;;;;17.20;72.03;101512.63;7396685;19;20443;-62
2023/10/05 09:44:53;;;;;;;7.63;2.63;;;;;;;17.18;72.06;101496.72;7399122;19;20571;-62
2023/10/05 09:47:24;;;;;;;6.68;2.08;;;;;;;17.11;71.56;101514.63;7397701;19;20895;-63
2023/10/05 09:49:58;;;;;;;9.20;3.22;;;;;;;17.20;72.17;101500.03;7398148;19;20719;-61
2023/10/05 09:52:31;;;;;;;10.57;3.10;;;;;;;17.24;72.15;101514.69;7399528;19;20384;-63
2023/10/05 09:54:59;;;;;;;8.10;2.38;;;;;;;17.22;71.60;101492.63;7398897;19;20729;-62
2023/10/05 09:57:27;;;;;;;7.70;2.70;;;;;;;17.32;72.35;101502.97;7397106;19;20432;-63
2023/10/05 10:00:00;;;;;;;9.70;2.33;;;;;;;17.23;72.08;101504.97;7397047;19;20852;-62
2023/10/05 10:02:40;;;;;;;6.07;2.45;;;;;;;17.36;72.04;101495.34;7395584;19;20967;-63
2023/10/05 10:05:30;;;;;;;6.25;2.35;;;;;;;17.58;71.36;101502.25;7397598;19;20341;-62
2023/10/05 10:08:08;;;;;;;7.27;2.93;;;;;;;17.61;70.39;101482.22;7399755;19;20434;-62
2023/10/05 10:10:43;;;;;;;5.55;2.15;;;;;;;17.76;70.12;101495.47;7400475;19;20697;-62
2023/10/05 10:13:13;;;;;;;5.40;2.30;;;;;;;17.91;69.35;101474.69;7403546;19;20379;-63
2023/10/05 10:15:45;;;;;;;8.50;2.60;;;;;;;17.95;69.37;101483.16;7396666;19;20371;-62
2023/10/05 10:18:14;;;;;;;13.68;3.00;;;;;;;17.84;68.11;101506.88;7394605;19;20391;-62
2023/10/05 10:20:49;;;;;;;7.35;2.70;;;;;;;17.82;69.50;101492.00;7398383;19;20345;-62
2023/10/05 10:23:35;;;;;;;7.07;2.40;;;;;;;17.89;69.26;101485.66;7397014;19;20436;-62
2023/10/05 10:26:06;;;;;;;7.35;2.40;;;;;;;17.95;69.47;101491.22;7394658;19;20356;-62
2023/10/05 10:28:49;;;;;;;5.72;2.13;;;;;;;17.74;69.35;101517.16;7398038;19;20348;-63
2023/10/05 10:31:42;;;;;;;8.55;2.25;;;;;;;17.67;69.53;101545.81;7396803;19;20360;-63
2023/10/05 10:34:19;;;;;;;10.60;2.70;;;;;;;17.58;69.88;101517.53;7396605;19;20352;-63
2023/10/05 10:36:52;;;;;;;6.67;2.27;;;;;;;17.56;70.18;101512.34;7392503;19;20362;-63
2023/10/05 10:39:29;;;;;;;8.68;2.50;;;;;;;17.51;70.71;101528.22;7394098;19;20328;-62
2023/10/05 10:42:19;;;;;;;6.00;2.35;;;;;;;17.47;70.52;101521.63;7396253;19;20350;-63
2023/10/05 10:47:19;;;;;;;8.23;2.20;;;;;;;17.63;70.55;101531.16;7397141;19;20352;-63
2023/10/05 10:50:14;;;;;;;8.35;2.20;;;;;;;17.69;70.17;101516.94;7396644;19;20416;-63
2023/10/05 10:52:44;;;;;;;7.85;2.50;;;;;;;17.72;70.17;101516.50;7394584;19;20376;-62
2023/10/05 10:55:15;;;;;;;7.20;2.33;;;;;;;17.69;70.43;101515.06;7396747;19;20356;-63
2023/10/05 10:57:47;;;;;;;5.93;2.13;;;;;;;17.65;70.38;101529.09;7397045;19;20381;-62
2023/10/05 11:03:24;;;;;;;9.15;2.78;;;;;;;17.49;70.96;101525.75;7392310;19;20398;-62
2023/10/05 11:05:51;;;;;;;8.52;2.35;;;;;;;17.40;71.31;101508.16;7396954;19;20364;-63
2023/10/05 11:08:21;;;;;;;7.22;2.28;;;;;;;17.36;71.48;101525.66;7396382;19;20363;-62
2023/10/05 11:11:00;;;;;;;7.27;2.23;;;;;;;17.32;71.41;101511.03;7395254;19;20706;-62
2023/10/05 11:13:27;;;;;;;9.55;2.78;;;;;;;17.41;72.10;101511.69;7393984;19;20918;-62
2023/10/05 11:15:59;;;;;;;5.40;2.45;;;;;;;17.36;72.34;101524.84;7394352;19;20349;-63
2023/10/05 11:18:30;;;;;;;8.55;2.55;;;;;;;17.40;72.19;101510.84;7379228;19;20340;-63
2023/10/05 11:21:16;;;;;;;5.80;2.10;;;;;;;17.44;72.10;101514.78;7395097;19;20464;-63
2023/10/05 11:23:47;;;;;;;7.43;2.40;;;;;;;17.50;71.82;101515.84;7392466;19;20436;-62
2023/10/05 11:26:18;;;;;;;6.60;2.50;;;;;;;17.60;71.65;101516.28;7393560;19;20714;-62
2023/10/05 11:28:49;;;;;;;6.18;2.33;;;;;;;17.66;71.76;101520.00;7392783;19;20708;-62
2023/10/05 11:31:38;;;;;;;6.90;2.25;;;;;;;17.67;71.50;101513.63;7393106;19;20390;-62
2023/10/05 11:34:19;;;;;;;6.65;2.10;;;;;;;17.76;71.10;101512.41;7394736;19;20713;-63
2023/10/05 11:37:15;;;;;;;8.40;2.38;;;;;;;17.74;71.38;101506.41;7392966;19;20360;-62
2023/10/05 11:39:49;;;;;;;8.30;2.60;;;;;;;17.72;71.38;101512.00;7394420;19;20380;-63
2023/10/05 11:42:25;;;;;;;8.97;2.60;;;;;;;17.77;71.71;101516.75;7394322;19;20702;-61
2023/10/05 11:44:57;;;;;;;7.35;2.30;;;;;;;17.75;72.04;101512.63;7394823;19;20368;-63
2023/10/05 11:47:36;;;;;;;7.13;2.17;;;;;;;17.76;71.66;101512.41;7393382;19;20329;-62
2023/10/05 11:50:08;;;;;;;8.60;2.28;;;;;;;17.80;71.49;101513.66;7398723;19;20686;-63
2023/10/05 11:52:38;;;;;;;4.63;2.03;;;;;;;17.82;71.77;101517.00;7401281;19;20392;-63
2023/10/05 11:55:14;;;;;;;8.25;2.70;;;;;;;17.88;71.60;101518.06;7401341;19;20356;-63
2023/10/05 11:57:41;;;;;;;7.20;1.77;;;;;;;17.92;70.89;101517.44;7399328;19;20363;-62
2023/10/05 12:00:11;;;;;;;7.70;2.55;;;;;;;17.99;70.94;101509.38;7401006;19;20418;-63
2023/10/05 12:02:38;;;;;;;8.55;2.55;;;;;;;18.02;70.59;101508.16;7396886;19;20372;-63
2023/10/05 12:05:07;;;;;;;7.65;2.25;;;;;;;18.05;70.91;101497.00;7400837;19;20425;-62
2023/10/05 12:07:34;;;;;;;8.38;2.83;;;;;;;18.07;70.99;101498.47;7399466;19;20355;-63
2023/10/05 12:10:09;;;;;;;12.40;3.20;;;;;;;18.08;71.40;101501.97;7401245;19;20361;-63
2023/10/05 12:12:41;;;;;;;5.60;2.03;;;;;;;18.08;71.49;101507.34;7399546;19;20718;-62
2023/10/05 12:15:12;;;;;;;6.90;2.20;;;;;;;18.04;70.64;101508.78;7400176;19;20368;-63